X  Close Metar Aviation Weather Data        EGMD Southend
Temperature
8°C Temperature
6°C Dewpoint
87% Humidity



Wind
17 MPH
28 KM/H
8 M/S
15 KTS



100°
E
Current Conditions

Mostly Cloudy with Light Showers Mostly Cloudy , Light Showers
Pressure 993 (hPa) - 29.32 (inHg)
Visibility 6 (mile) - 10 (km)
Airport
Airport-code EGMD

Location: Southend
Distance: 14 (mi)

Metar:
METAR EGMD 251550Z 10015KT 9999 -SHRA BKN022 BKN027 08/06 Q0993

Time: 25-02-2024 15:50 GMT